Laverock, Pennsylvania
Current Conditions -  °F | °C
As of 8:55 AM on Saturday 22 Nov 2014 (Local Time) from KLOM Reporting Station
Clear Clear  
Wind Chill: 32°   Ceiling: Unl
Heat Index: 32°   Visibility: 10mi
Dew Point: 16°   Wind: 3mph
Humidity: 51%   Direction: 240°WSW
Pressure: 30.49"   Gusts: NA
Location:  40.1012°N, 75.1722°W
Report Text: KLOM 221355Z AUTO 24003KT 10SM CLR 00/M09 A3049 RMK AO1
Loading
Personal Weather Stations






























Interactive Weather Map New forecast layout! Learn more

10-Day Weather Forecast

Advertisements
Track Severe Weather on mobile